LPMZ weather

Porto Moniz Helipad
Porto Moniz, Autonomous Region of Madeira, Portugal

Public forecast

Using degrees Celsius for public forecast. Weather courtesy of forecast.io.

METAR (pilot weather report)

Closest report is Madeira Airport, 22.2 nm (41.1 km) ESE. Retrieved 2019/05/21 01:30 UTC (27 minutes ago):

LPMA 210130Z 03005KT 340V070 9999 SCT015 18/14 Q1021

TAF (pilot weather forecast)

Forecast is more than 12 hours old.

Closest forecast is Madeira Airport, 22.2 nm (41.1 km) ESE. Retrieved 2019/05/20 00:18 UTC (1 day ago):

TAF LPMA 202300Z 2100/2124 02010KT 9999 SCT015 TEMPO 2100/2120 BKN015